sensor_id;sensor_type;location;lat;lon;timestamp;temperature;humidity
29571;DHT22;16814;52.118;11.436;2023-11-21T00:00:00;8.50;99.90
29571;DHT22;16814;52.118;11.436;2023-11-21T00:02:27;8.50;99.90
29571;DHT22;16814;52.118;11.436;2023-11-21T00:04:54;8.50;99.90
29571;DHT22;16814;52.118;11.436;2023-11-21T00:07:21;8.40;99.90
29571;DHT22;16814;52.118;11.436;2023-11-21T00:09:50;8.40;99.90
29571;DHT22;16814;52.118;11.436;2023-11-21T00:12:17;8.40;99.90
29571;DHT22;16814;52.118;11.436;2023-11-21T00:14:47;8.40;99.90
29571;DHT22;16814;52.118;11.436;2023-11-21T00:17:13;8.50;99.90
29571;DHT22;16814;52.118;11.436;2023-11-21T00:19:39;8.40;99.90
29571;DHT22;16814;52.118;11.436;2023-11-21T00:22:05;8.40;99.90
29571;DHT22;16814;52.118;11.436;2023-11-21T00:24:33;8.40;99.90
29571;DHT22;16814;52.118;11.436;2023-11-21T00:27:01;8.40;99.90
29571;DHT22;16814;52.118;11.436;2023-11-21T00:29:28;8.40;99.90
29571;DHT22;16814;52.118;11.436;2023-11-21T00:31:54;8.40;99.90
29571;DHT22;16814;52.118;11.436;2023-11-21T00:34:21;8.30;99.90
29571;DHT22;16814;52.118;11.436;2023-11-21T00:36:47;8.30;99.90
29571;DHT22;16814;52.118;11.436;2023-11-21T00:39:12;8.30;99.90
29571;DHT22;16814;52.118;11.436;2023-11-21T00:41:38;8.20;99.90
29571;DHT22;16814;52.118;11.436;2023-11-21T00:44:05;8.30;99.90
29571;DHT22;16814;52.118;11.436;2023-11-21T00:46:32;8.30;99.90
29571;DHT22;16814;52.118;11.436;2023-11-21T00:48:59;8.30;99.90
29571;DHT22;16814;52.118;11.436;2023-11-21T00:51:26;8.30;99.90
29571;DHT22;16814;52.118;11.436;2023-11-21T00:53:52;8.30;99.90
29571;DHT22;16814;52.118;11.436;2023-11-21T00:56:19;8.30;99.90
29571;DHT22;16814;52.118;11.436;2023-11-21T00:58:47;8.30;99.90
29571;DHT22;16814;52.118;11.436;2023-11-21T01:01:18;8.20;99.90
29571;DHT22;16814;52.118;11.436;2023-11-21T01:03:49;8.30;99.90
29571;DHT22;16814;52.118;11.436;2023-11-21T01:06:15;8.30;99.90
29571;DHT22;16814;52.118;11.436;2023-11-21T01:08:40;8.20;99.90
29571;DHT22;16814;52.118;11.436;2023-11-21T01:11:10;8.30;99.90
29571;DHT22;16814;52.118;11.436;2023-11-21T01:13:41;8.20;99.90
29571;DHT22;16814;52.118;11.436;2023-11-21T01:16:08;8.20;99.90
29571;DHT22;16814;52.118;11.436;2023-11-21T01:18:35;8.20;99.90
29571;DHT22;16814;52.118;11.436;2023-11-21T01:21:02;8.30;99.90
29571;DHT22;16814;52.118;11.436;2023-11-21T01:23:29;8.30;99.90
29571;DHT22;16814;52.118;11.436;2023-11-21T01:25:57;8.30;99.90
29571;DHT22;16814;52.118;11.436;2023-11-21T01:28:24;8.40;99.90
29571;DHT22;16814;52.118;11.436;2023-11-21T01:30:51;8.40;99.90
29571;DHT22;16814;52.118;11.436;2023-11-21T01:33:26;8.30;99.90
29571;DHT22;16814;52.118;11.436;2023-11-21T01:35:57;8.30;99.90
29571;DHT22;16814;52.118;11.436;2023-11-21T01:38:26;8.30;99.90
29571;DHT22;16814;52.118;11.436;2023-11-21T01:40:53;8.30;99.90
29571;DHT22;16814;52.118;11.436;2023-11-21T01:43:19;8.30;99.90
29571;DHT22;16814;52.118;11.436;2023-11-21T01:45:47;8.30;99.90
29571;DHT22;16814;52.118;11.436;2023-11-21T01:48:14;8.30;99.90
29571;DHT22;16814;52.118;11.436;2023-11-21T01:50:43;8.20;99.90
29571;DHT22;16814;52.118;11.436;2023-11-21T01:53:12;8.30;99.90
29571;DHT22;16814;52.118;11.436;2023-11-21T01:55:42;8.30;99.90
29571;DHT22;16814;52.118;11.436;2023-11-21T01:58:13;8.30;99.90
29571;DHT22;16814;52.118;11.436;2023-11-21T02:00:40;8.30;99.90
29571;DHT22;16814;52.118;11.436;2023-11-21T02:03:09;8.30;99.90
29571;DHT22;16814;52.118;11.436;2023-11-21T02:05:35;8.30;99.90
29571;DHT22;16814;52.118;11.436;2023-11-21T02:08:03;8.20;99.90
29571;DHT22;16814;52.118;11.436;2023-11-21T02:10:30;8.30;99.90
29571;DHT22;16814;52.118;11.436;2023-11-21T02:12:58;8.30;99.90
29571;DHT22;16814;52.118;11.436;2023-11-21T02:15:26;8.30;99.90
29571;DHT22;16814;52.118;11.436;2023-11-21T02:17:55;8.30;99.90
29571;DHT22;16814;52.118;11.436;2023-11-21T02:20:26;8.30;99.90
29571;DHT22;16814;52.118;11.436;2023-11-21T02:22:57;8.30;99.90
29571;DHT22;16814;52.118;11.436;2023-11-21T02:25:33;8.30;99.90
29571;DHT22;16814;52.118;11.436;2023-11-21T02:28:02;8.30;99.90
29571;DHT22;16814;52.118;11.436;2023-11-21T02:30:30;8.30;99.90
29571;DHT22;16814;52.118;11.436;2023-11-21T02:33:02;8.20;99.90
29571;DHT22;16814;52.118;11.436;2023-11-21T02:35:28;8.30;99.90
29571;DHT22;16814;52.118;11.436;2023-11-21T02:37:55;8.40;99.90
29571;DHT22;16814;52.118;11.436;2023-11-21T02:40:20;8.20;99.90
29571;DHT22;16814;52.118;11.436;2023-11-21T02:42:47;8.20;99.90
29571;DHT22;16814;52.118;11.436;2023-11-21T02:45:14;8.30;99.90
29571;DHT22;16814;52.118;11.436;2023-11-21T02:47:44;8.30;99.90
29571;DHT22;16814;52.118;11.436;2023-11-21T02:50:10;8.30;99.90
29571;DHT22;16814;52.118;11.436;2023-11-21T02:52:39;8.20;99.90
29571;DHT22;16814;52.118;11.436;2023-11-21T02:55:06;8.20;99.90
29571;DHT22;16814;52.118;11.436;2023-11-21T02:57:34;8.20;99.90
29571;DHT22;16814;52.118;11.436;2023-11-21T03:00:00;8.30;99.90
29571;DHT22;16814;52.118;11.436;2023-11-21T03:02:26;8.10;99.90
29571;DHT22;16814;52.118;11.436;2023-11-21T03:04:54;8.20;99.90
29571;DHT22;16814;52.118;11.436;2023-11-21T03:07:20;8.10;99.90
29571;DHT22;16814;52.118;11.436;2023-11-21T03:09:47;8.10;99.90
29571;DHT22;16814;52.118;11.436;2023-11-21T03:12:13;8.20;99.90
29571;DHT22;16814;52.118;11.436;2023-11-21T03:14:40;8.30;99.90
29571;DHT22;16814;52.118;11.436;2023-11-21T03:17:08;8.20;99.90
29571;DHT22;16814;52.118;11.436;2023-11-21T03:19:35;8.20;99.90
29571;DHT22;16814;52.118;11.436;2023-11-21T03:22:00;8.20;99.90
29571;DHT22;16814;52.118;11.436;2023-11-21T03:24:27;8.20;99.90
29571;DHT22;16814;52.118;11.436;2023-11-21T03:26:54;8.20;99.90
29571;DHT22;16814;52.118;11.436;2023-11-21T03:29:22;8.20;99.90
29571;DHT22;16814;52.118;11.436;2023-11-21T03:31:49;8.20;99.90
29571;DHT22;16814;52.118;11.436;2023-11-21T03:34:26;8.00;99.90
29571;DHT22;16814;52.118;11.436;2023-11-21T03:36:54;7.90;99.90
29571;DHT22;16814;52.118;11.436;2023-11-21T03:39:20;7.90;99.90
29571;DHT22;16814;52.118;11.436;2023-11-21T03:41:46;7.90;99.90
29571;DHT22;16814;52.118;11.436;2023-11-21T03:44:12;7.80;99.90
29571;DHT22;16814;52.118;11.436;2023-11-21T03:46:40;7.80;99.90
29571;DHT22;16814;52.118;11.436;2023-11-21T03:49:08;7.70;99.90
29571;DHT22;16814;52.118;11.436;2023-11-21T03:51:34;7.80;99.90
29571;DHT22;16814;52.118;11.436;2023-11-21T03:54:01;7.90;99.90
29571;DHT22;16814;52.118;11.436;2023-11-21T03:56:26;7.80;99.90
29571;DHT22;16814;52.118;11.436;2023-11-21T03:58:53;7.90;99.90
29571;DHT22;16814;52.118;11.436;2023-11-21T04:01:21;7.90;99.90
29571;DHT22;16814;52.118;11.436;2023-11-21T04:03:49;7.80;99.90
29571;DHT22;16814;52.118;11.436;2023-11-21T04:06:15;7.80;99.90
29571;DHT22;16814;52.118;11.436;2023-11-21T04:08:53;7.80;99.90
29571;DHT22;16814;52.118;11.436;2023-11-21T04:11:19;7.70;99.90
29571;DHT22;16814;52.118;11.436;2023-11-21T04:13:47;7.80;99.90
29571;DHT22;16814;52.118;11.436;2023-11-21T04:16:14;7.70;99.90
29571;DHT22;16814;52.118;11.436;2023-11-21T04:18:39;7.70;99.90
29571;DHT22;16814;52.118;11.436;2023-11-21T04:21:08;7.70;99.90
29571;DHT22;16814;52.118;11.436;2023-11-21T04:23:35;7.60;99.90
29571;DHT22;16814;52.118;11.436;2023-11-21T04:26:04;7.60;99.90
29571;DHT22;16814;52.118;11.436;2023-11-21T04:28:29;7.70;99.90
29571;DHT22;16814;52.118;11.436;2023-11-21T04:30:57;7.60;99.90
29571;DHT22;16814;52.118;11.436;2023-11-21T04:33:25;7.60;99.90
29571;DHT22;16814;52.118;11.436;2023-11-21T04:35:51;7.60;99.90
29571;DHT22;16814;52.118;11.436;2023-11-21T04:38:18;7.60;99.90
29571;DHT22;16814;52.118;11.436;2023-11-21T04:40:45;7.60;99.90
29571;DHT22;16814;52.118;11.436;2023-11-21T04:43:14;7.60;99.90
29571;DHT22;16814;52.118;11.436;2023-11-21T04:45:39;7.60;99.90
29571;DHT22;16814;52.118;11.436;2023-11-21T04:48:09;7.50;99.90
29571;DHT22;16814;52.118;11.436;2023-11-21T04:50:36;7.50;99.90
29571;DHT22;16814;52.118;11.436;2023-11-21T04:53:04;7.50;99.90
29571;DHT22;16814;52.118;11.436;2023-11-21T04:55:32;7.40;99.90
29571;DHT22;16814;52.118;11.436;2023-11-21T04:58:00;7.40;99.90
29571;DHT22;16814;52.118;11.436;2023-11-21T05:00:27;7.40;99.90
29571;DHT22;16814;52.118;11.436;2023-11-21T05:02:52;7.40;99.90
29571;DHT22;16814;52.118;11.436;2023-11-21T05:05:18;7.50;99.90
29571;DHT22;16814;52.118;11.436;2023-11-21T05:07:46;7.50;99.90
29571;DHT22;16814;52.118;11.436;2023-11-21T05:10:19;7.60;99.90
29571;DHT22;16814;52.118;11.436;2023-11-21T05:12:47;7.50;99.90
29571;DHT22;16814;52.118;11.436;2023-11-21T05:15:15;7.40;99.90
29571;DHT22;16814;52.118;11.436;2023-11-21T05:17:43;7.40;99.90
29571;DHT22;16814;52.118;11.436;2023-11-21T05:20:14;7.40;99.90
29571;DHT22;16814;52.118;11.436;2023-11-21T05:22:44;7.30;99.90
29571;DHT22;16814;52.118;11.436;2023-11-21T05:25:10;7.30;99.90
29571;DHT22;16814;52.118;11.436;2023-11-21T05:27:38;7.30;99.90
29571;DHT22;16814;52.118;11.436;2023-11-21T05:30:04;7.30;99.90
29571;DHT22;16814;52.118;11.436;2023-11-21T05:32:35;7.30;99.90
29571;DHT22;16814;52.118;11.436;2023-11-21T05:35:02;7.30;99.90
29571;DHT22;16814;52.118;11.436;2023-11-21T05:37:31;7.20;99.90
29571;DHT22;16814;52.118;11.436;2023-11-21T05:40:07;7.20;99.90
29571;DHT22;16814;52.118;11.436;2023-11-21T05:42:37;7.20;99.90
29571;DHT22;16814;52.118;11.436;2023-11-21T05:45:10;7.10;99.90
29571;DHT22;16814;52.118;11.436;2023-11-21T05:47:39;7.00;99.90
29571;DHT22;16814;52.118;11.436;2023-11-21T05:50:08;6.90;99.90
29571;DHT22;16814;52.118;11.436;2023-11-21T05:52:44;6.80;99.90
29571;DHT22;16814;52.118;11.436;2023-11-21T05:55:10;6.80;99.90
29571;DHT22;16814;52.118;11.436;2023-11-21T05:57:38;6.70;99.90
29571;DHT22;16814;52.118;11.436;2023-11-21T06:00:09;6.40;99.90
29571;DHT22;16814;52.118;11.436;2023-11-21T06:02:43;6.40;99.90
29571;DHT22;16814;52.118;11.436;2023-11-21T06:05:10;6.40;99.90
29571;DHT22;16814;52.118;11.436;2023-11-21T06:07:37;6.40;99.90
29571;DHT22;16814;52.118;11.436;2023-11-21T06:10:10;6.40;99.90
29571;DHT22;16814;52.118;11.436;2023-11-21T06:12:37;6.30;99.90
29571;DHT22;16814;52.118;11.436;2023-11-21T06:15:05;6.20;99.90
29571;DHT22;16814;52.118;11.436;2023-11-21T06:17:45;6.20;99.90
29571;DHT22;16814;52.118;11.436;2023-11-21T06:20:15;6.20;99.90
29571;DHT22;16814;52.118;11.436;2023-11-21T06:22:50;6.30;99.90
29571;DHT22;16814;52.118;11.436;2023-11-21T06:25:17;6.30;99.90
29571;DHT22;16814;52.118;11.436;2023-11-21T06:27:46;6.20;99.90
29571;DHT22;16814;52.118;11.436;2023-11-21T06:30:16;6.30;99.90
29571;DHT22;16814;52.118;11.436;2023-11-21T06:32:48;6.40;99.90
29571;DHT22;16814;52.118;11.436;2023-11-21T06:35:13;6.20;99.90
29571;DHT22;16814;52.118;11.436;2023-11-21T06:37:43;6.20;99.90
29571;DHT22;16814;52.118;11.436;2023-11-21T06:40:16;6.20;99.90
29571;DHT22;16814;52.118;11.436;2023-11-21T06:42:46;6.10;99.90
29571;DHT22;16814;52.118;11.436;2023-11-21T06:45:12;6.00;99.90
29571;DHT22;16814;52.118;11.436;2023-11-21T06:47:40;6.10;99.90
29571;DHT22;16814;52.118;11.436;2023-11-21T06:50:07;6.30;99.90
29571;DHT22;16814;52.118;11.436;2023-11-21T06:52:35;6.30;99.90
29571;DHT22;16814;52.118;11.436;2023-11-21T06:55:02;6.20;99.90
29571;DHT22;16814;52.118;11.436;2023-11-21T06:57:31;6.20;99.90
29571;DHT22;16814;52.118;11.436;2023-11-21T06:59:56;6.10;99.90
29571;DHT22;16814;52.118;11.436;2023-11-21T07:02:24;6.10;99.90
29571;DHT22;16814;52.118;11.436;2023-11-21T07:04:52;6.00;99.90
29571;DHT22;16814;52.118;11.436;2023-11-21T07:07:19;5.90;99.90
29571;DHT22;16814;52.118;11.436;2023-11-21T07:09:45;5.90;99.90
29571;DHT22;16814;52.118;11.436;2023-11-21T07:12:13;6.00;99.90
29571;DHT22;16814;52.118;11.436;2023-11-21T07:14:40;6.00;99.90
29571;DHT22;16814;52.118;11.436;2023-11-21T07:17:11;6.00;99.90
29571;DHT22;16814;52.118;11.436;2023-11-21T07:19:38;5.90;99.90
29571;DHT22;16814;52.118;11.436;2023-11-21T07:22:03;6.00;99.90
29571;DHT22;16814;52.118;11.436;2023-11-21T07:24:34;5.90;99.90
29571;DHT22;16814;52.118;11.436;2023-11-21T07:27:02;5.80;99.90
29571;DHT22;16814;52.118;11.436;2023-11-21T07:29:30;5.80;99.90
29571;DHT22;16814;52.118;11.436;2023-11-21T07:31:56;5.70;99.90
29571;DHT22;16814;52.118;11.436;2023-11-21T07:34:23;5.60;99.90
29571;DHT22;16814;52.118;11.436;2023-11-21T07:36:50;5.70;99.90
29571;DHT22;16814;52.118;11.436;2023-11-21T07:39:17;5.70;99.90
29571;DHT22;16814;52.118;11.436;2023-11-21T07:41:42;5.70;99.90
29571;DHT22;16814;52.118;11.436;2023-11-21T07:44:15;5.70;99.90
29571;DHT22;16814;52.118;11.436;2023-11-21T07:46:47;5.70;99.90
29571;DHT22;16814;52.118;11.436;2023-11-21T07:49:14;5.70;99.90
29571;DHT22;16814;52.118;11.436;2023-11-21T07:51:48;5.60;99.90
29571;DHT22;16814;52.118;11.436;2023-11-21T07:54:16;5.60;99.90
29571;DHT22;16814;52.118;11.436;2023-11-21T07:56:43;5.80;99.90
29571;DHT22;16814;52.118;11.436;2023-11-21T07:59:11;5.70;99.90
29571;DHT22;16814;52.118;11.436;2023-11-21T08:01:39;5.70;99.90
29571;DHT22;16814;52.118;11.436;2023-11-21T08:04:06;5.70;99.90
29571;DHT22;16814;52.118;11.436;2023-11-21T08:06:33;5.80;99.90
29571;DHT22;16814;52.118;11.436;2023-11-21T08:08:59;5.70;99.90
29571;DHT22;16814;52.118;11.436;2023-11-21T08:11:26;5.80;99.90
29571;DHT22;16814;52.118;11.436;2023-11-21T08:13:58;5.80;99.90
29571;DHT22;16814;52.118;11.436;2023-11-21T08:16:26;5.70;99.90
29571;DHT22;16814;52.118;11.436;2023-11-21T08:18:54;5.70;99.90
29571;DHT22;16814;52.118;11.436;2023-11-21T08:21:20;5.70;99.90
29571;DHT22;16814;52.118;11.436;2023-11-21T08:23:49;5.70;99.90
29571;DHT22;16814;52.118;11.436;2023-11-21T08:26:21;5.80;99.90
29571;DHT22;16814;52.118;11.436;2023-11-21T08:28:50;5.80;99.90
29571;DHT22;16814;52.118;11.436;2023-11-21T08:31:25;5.90;99.90
29571;DHT22;16814;52.118;11.436;2023-11-21T08:33:52;5.90;99.90
29571;DHT22;16814;52.118;11.436;2023-11-21T08:36:22;5.80;99.90
29571;DHT22;16814;52.118;11.436;2023-11-21T08:38:49;5.80;99.90
29571;DHT22;16814;52.118;11.436;2023-11-21T08:41:20;5.70;99.90
29571;DHT22;16814;52.118;11.436;2023-11-21T08:43:50;5.60;99.90
29571;DHT22;16814;52.118;11.436;2023-11-21T08:46:16;5.60;99.90
29571;DHT22;16814;52.118;11.436;2023-11-21T08:48:43;5.50;99.90
29571;DHT22;16814;52.118;11.436;2023-11-21T08:51:11;5.50;99.90
29571;DHT22;16814;52.118;11.436;2023-11-21T08:53:38;5.50;99.90
29571;DHT22;16814;52.118;11.436;2023-11-21T08:56:04;5.60;99.90
29571;DHT22;16814;52.118;11.436;2023-11-21T08:58:31;5.50;99.90
29571;DHT22;16814;52.118;11.436;2023-11-21T09:00:58;5.50;99.90
29571;DHT22;16814;52.118;11.436;2023-11-21T09:03:27;5.50;99.90
29571;DHT22;16814;52.118;11.436;2023-11-21T09:05:56;5.50;99.90
29571;DHT22;16814;52.118;11.436;2023-11-21T09:08:23;5.50;99.90
29571;DHT22;16814;52.118;11.436;2023-11-21T09:10:48;5.60;99.90
29571;DHT22;16814;52.118;11.436;2023-11-21T09:13:17;5.60;99.90
29571;DHT22;16814;52.118;11.436;2023-11-21T09:15:43;5.60;99.90
29571;DHT22;16814;52.118;11.436;2023-11-21T09:18:19;5.70;99.90
29571;DHT22;16814;52.118;11.436;2023-11-21T09:20:55;5.80;99.90
29571;DHT22;16814;52.118;11.436;2023-11-21T09:23:21;5.70;99.90
29571;DHT22;16814;52.118;11.436;2023-11-21T09:25:47;5.70;99.90
29571;DHT22;16814;52.118;11.436;2023-11-21T09:28:17;5.70;99.90
29571;DHT22;16814;52.118;11.436;2023-11-21T09:30:44;5.70;99.90
29571;DHT22;16814;52.118;11.436;2023-11-21T09:33:12;5.70;99.90
29571;DHT22;16814;52.118;11.436;2023-11-21T09:35:38;5.70;99.90
29571;DHT22;16814;52.118;11.436;2023-11-21T09:38:05;5.80;99.90
29571;DHT22;16814;52.118;11.436;2023-11-21T09:40:38;5.90;99.90
29571;DHT22;16814;52.118;11.436;2023-11-21T09:43:18;5.90;99.90
29571;DHT22;16814;52.118;11.436;2023-11-21T09:45:47;6.00;99.90
29571;DHT22;16814;52.118;11.436;2023-11-21T09:48:15;5.90;99.90
29571;DHT22;16814;52.118;11.436;2023-11-21T09:50:45;5.80;99.90
29571;DHT22;16814;52.118;11.436;2023-11-21T09:53:22;5.80;99.90
29571;DHT22;16814;52.118;11.436;2023-11-21T09:55:52;5.90;99.90
29571;DHT22;16814;52.118;11.436;2023-11-21T09:58:21;6.00;99.90
29571;DHT22;16814;52.118;11.436;2023-11-21T10:00:52;5.80;99.90
29571;DHT22;16814;52.118;11.436;2023-11-21T10:03:19;5.90;99.90
29571;DHT22;16814;52.118;11.436;2023-11-21T10:05:50;5.90;99.90
29571;DHT22;16814;52.118;11.436;2023-11-21T10:08:17;5.90;99.90
29571;DHT22;16814;52.118;11.436;2023-11-21T10:10:45;5.80;99.90
29571;DHT22;16814;52.118;11.436;2023-11-21T10:13:12;5.80;99.90
29571;DHT22;16814;52.118;11.436;2023-11-21T10:15:44;5.80;99.90
29571;DHT22;16814;52.118;11.436;2023-11-21T10:18:17;5.70;99.90
29571;DHT22;16814;52.118;11.436;2023-11-21T10:20:43;5.80;99.90
29571;DHT22;16814;52.118;11.436;2023-11-21T10:23:12;5.90;99.90
29571;DHT22;16814;52.118;11.436;2023-11-21T10:25:40;5.90;99.90
29571;DHT22;16814;52.118;11.436;2023-11-21T10:28:12;6.00;99.90
29571;DHT22;16814;52.118;11.436;2023-11-21T10:30:40;6.10;99.90
29571;DHT22;16814;52.118;11.436;2023-11-21T10:33:09;6.20;99.90
29571;DHT22;16814;52.118;11.436;2023-11-21T10:35:47;6.40;99.90
29571;DHT22;16814;52.118;11.436;2023-11-21T10:38:17;6.70;99.90
29571;DHT22;16814;52.118;11.436;2023-11-21T10:40:45;6.30;99.90
29571;DHT22;16814;52.118;11.436;2023-11-21T10:43:14;6.20;99.90
29571;DHT22;16814;52.118;11.436;2023-11-21T10:45:46;6.20;99.90
29571;DHT22;16814;52.118;11.436;2023-11-21T10:48:14;6.10;99.90
29571;DHT22;16814;52.118;11.436;2023-11-21T10:50:48;6.10;99.90
29571;DHT22;16814;52.118;11.436;2023-11-21T10:53:16;5.90;99.90
29571;DHT22;16814;52.118;11.436;2023-11-21T10:55:43;6.00;99.90
29571;DHT22;16814;52.118;11.436;2023-11-21T10:58:17;6.00;99.90
29571;DHT22;16814;52.118;11.436;2023-11-21T11:00:44;5.80;99.90
29571;DHT22;16814;52.118;11.436;2023-11-21T11:03:12;5.80;99.90
29571;DHT22;16814;52.118;11.436;2023-11-21T11:05:41;5.80;99.90
29571;DHT22;16814;52.118;11.436;2023-11-21T11:08:12;5.80;99.90
29571;DHT22;16814;52.118;11.436;2023-11-21T11:10:51;5.80;99.90
29571;DHT22;16814;52.118;11.436;2023-11-21T11:13:18;5.90;99.90
29571;DHT22;16814;52.118;11.436;2023-11-21T11:15:48;5.80;99.90
29571;DHT22;16814;52.118;11.436;2023-11-21T11:18:14;5.70;99.90
29571;DHT22;16814;52.118;11.436;2023-11-21T11:20:43;5.70;99.90
29571;DHT22;16814;52.118;11.436;2023-11-21T11:23:37;5.80;99.90
29571;DHT22;16814;52.118;11.436;2023-11-21T11:30:16;5.90;99.90
29571;DHT22;16814;52.118;11.436;2023-11-21T11:33:25;6.00;99.90
29571;DHT22;16814;52.118;11.436;2023-11-21T11:38:52;5.90;99.90
29571;DHT22;16814;52.118;11.436;2023-11-21T11:41:32;6.00;99.90
29571;DHT22;16814;52.118;11.436;2023-11-21T11:44:03;5.90;99.90
29571;DHT22;16814;52.118;11.436;2023-11-21T11:46:45;5.90;99.90
29571;DHT22;16814;52.118;11.436;2023-11-21T11:49:27;6.00;99.90
29571;DHT22;16814;52.118;11.436;2023-11-21T11:52:41;6.20;99.90
29571;DHT22;16814;52.118;11.436;2023-11-21T11:55:14;6.30;99.90
29571;DHT22;16814;52.118;11.436;2023-11-21T11:57:41;6.20;99.90
29571;DHT22;16814;52.118;11.436;2023-11-21T12:00:20;6.20;99.90
29571;DHT22;16814;52.118;11.436;2023-11-21T12:02:53;6.30;99.90
29571;DHT22;16814;52.118;11.436;2023-11-21T12:05:21;6.20;99.90
29571;DHT22;16814;52.118;11.436;2023-11-21T12:07:54;6.20;99.90
29571;DHT22;16814;52.118;11.436;2023-11-21T12:10:30;6.20;99.90
29571;DHT22;16814;52.118;11.436;2023-11-21T12:12:59;6.20;99.90
29571;DHT22;16814;52.118;11.436;2023-11-21T12:15:27;6.20;99.90
29571;DHT22;16814;52.118;11.436;2023-11-21T12:18:00;6.20;99.90
29571;DHT22;16814;52.118;11.436;2023-11-21T12:20:26;6.30;99.90
29571;DHT22;16814;52.118;11.436;2023-11-21T12:22:54;6.30;99.90
29571;DHT22;16814;52.118;11.436;2023-11-21T12:25:29;6.40;99.90
29571;DHT22;16814;52.118;11.436;2023-11-21T12:28:00;6.40;99.90
29571;DHT22;16814;52.118;11.436;2023-11-21T12:30:29;6.40;99.90
29571;DHT22;16814;52.118;11.436;2023-11-21T12:32:57;6.40;99.90
29571;DHT22;16814;52.118;11.436;2023-11-21T12:35:26;6.50;99.90
29571;DHT22;16814;52.118;11.436;2023-11-21T12:37:57;6.50;99.90
29571;DHT22;16814;52.118;11.436;2023-11-21T12:40:23;6.30;99.90
29571;DHT22;16814;52.118;11.436;2023-11-21T12:42:52;6.30;99.90
29571;DHT22;16814;52.118;11.436;2023-11-21T12:45:27;6.40;99.90
29571;DHT22;16814;52.118;11.436;2023-11-21T12:48:07;6.30;99.90
29571;DHT22;16814;52.118;11.436;2023-11-21T12:50:35;6.20;99.90
29571;DHT22;16814;52.118;11.436;2023-11-21T12:53:12;6.30;99.90
29571;DHT22;16814;52.118;11.436;2023-11-21T12:55:44;6.00;99.90
29571;DHT22;16814;52.118;11.436;2023-11-21T12:58:19;6.00;99.90
29571;DHT22;16814;52.118;11.436;2023-11-21T13:00:52;6.00;99.90
29571;DHT22;16814;52.118;11.436;2023-11-21T13:03:22;5.90;99.90
29571;DHT22;16814;52.118;11.436;2023-11-21T13:05:52;5.70;99.90
29571;DHT22;16814;52.118;11.436;2023-11-21T13:08:23;5.50;99.90
29571;DHT22;16814;52.118;11.436;2023-11-21T13:10:52;5.40;99.90
29571;DHT22;16814;52.118;11.436;2023-11-21T13:13:25;5.30;99.90
29571;DHT22;16814;52.118;11.436;2023-11-21T13:15:56;5.40;99.90
29571;DHT22;16814;52.118;11.436;2023-11-21T13:18:28;5.30;99.90
29571;DHT22;16814;52.118;11.436;2023-11-21T13:20:56;5.40;99.90
29571;DHT22;16814;52.118;11.436;2023-11-21T13:23:22;5.40;99.90
29571;DHT22;16814;52.118;11.436;2023-11-21T13:25:51;5.20;99.90
29571;DHT22;16814;52.118;11.436;2023-11-21T13:28:20;5.10;99.90
29571;DHT22;16814;52.118;11.436;2023-11-21T13:30:49;4.60;99.90
29571;DHT22;16814;52.118;11.436;2023-11-21T13:33:20;5.20;99.90
29571;DHT22;16814;52.118;11.436;2023-11-21T13:35:54;5.10;99.90
29571;DHT22;16814;52.118;11.436;2023-11-21T13:38:23;5.20;99.90
29571;DHT22;16814;52.118;11.436;2023-11-21T13:40:51;5.00;99.90
29571;DHT22;16814;52.118;11.436;2023-11-21T13:43:26;4.90;99.90
29571;DHT22;16814;52.118;11.436;2023-11-21T13:45:56;4.80;99.90
29571;DHT22;16814;52.118;11.436;2023-11-21T13:49:02;4.90;99.90
29571;DHT22;16814;52.118;11.436;2023-11-21T13:51:31;5.00;99.90
29571;DHT22;16814;52.118;11.436;2023-11-21T13:54:05;5.00;99.90
29571;DHT22;16814;52.118;11.436;2023-11-21T13:56:38;5.00;99.90
29571;DHT22;16814;52.118;11.436;2023-11-21T13:59:07;5.00;99.90
29571;DHT22;16814;52.118;11.436;2023-11-21T14:01:55;5.00;99.90
29571;DHT22;16814;52.118;11.436;2023-11-21T14:04:25;5.10;99.90
29571;DHT22;16814;52.118;11.436;2023-11-21T14:07:29;5.00;99.90
29571;DHT22;16814;52.118;11.436;2023-11-21T14:10:04;5.00;99.90
29571;DHT22;16814;52.118;11.436;2023-11-21T14:12:35;5.10;99.90
29571;DHT22;16814;52.118;11.436;2023-11-21T14:15:05;5.00;99.90
29571;DHT22;16814;52.118;11.436;2023-11-21T14:17:35;4.90;99.90
29571;DHT22;16814;52.118;11.436;2023-11-21T14:20:05;4.90;99.90
29571;DHT22;16814;52.118;11.436;2023-11-21T14:22:34;4.90;99.90
29571;DHT22;16814;52.118;11.436;2023-11-21T14:25:00;4.80;99.90
29571;DHT22;16814;52.118;11.436;2023-11-21T14:27:31;4.80;99.90
29571;DHT22;16814;52.118;11.436;2023-11-21T14:29:59;4.80;99.90
29571;DHT22;16814;52.118;11.436;2023-11-21T14:32:25;4.90;99.90
29571;DHT22;16814;52.118;11.436;2023-11-21T14:34:52;4.90;99.90
29571;DHT22;16814;52.118;11.436;2023-11-21T14:37:19;4.90;99.90
29571;DHT22;16814;52.118;11.436;2023-11-21T14:39:47;4.90;99.90
29571;DHT22;16814;52.118;11.436;2023-11-21T14:42:16;4.90;99.90
29571;DHT22;16814;52.118;11.436;2023-11-21T14:44:44;4.90;99.90
29571;DHT22;16814;52.118;11.436;2023-11-21T14:47:09;4.90;99.90
29571;DHT22;16814;52.118;11.436;2023-11-21T14:49:42;4.70;99.90
29571;DHT22;16814;52.118;11.436;2023-11-21T14:52:27;4.70;99.90
29571;DHT22;16814;52.118;11.436;2023-11-21T14:55:12;4.80;99.90
29571;DHT22;16814;52.118;11.436;2023-11-21T14:58:04;4.80;99.90
29571;DHT22;16814;52.118;11.436;2023-11-21T15:00:33;4.80;99.90
29571;DHT22;16814;52.118;11.436;2023-11-21T15:03:12;4.80;99.90
29571;DHT22;16814;52.118;11.436;2023-11-21T15:06:05;4.80;99.90
29571;DHT22;16814;52.118;11.436;2023-11-21T15:08:58;4.70;99.90
29571;DHT22;16814;52.118;11.436;2023-11-21T15:11:39;4.60;99.90
29571;DHT22;16814;52.118;11.436;2023-11-21T15:14:05;4.60;99.90
29571;DHT22;16814;52.118;11.436;2023-11-21T15:16:35;4.50;99.90
29571;DHT22;16814;52.118;11.436;2023-11-21T15:19:14;4.40;99.90
29571;DHT22;16814;52.118;11.436;2023-11-21T15:21:45;4.50;99.90
29571;DHT22;16814;52.118;11.436;2023-11-21T15:24:14;4.40;99.90
29571;DHT22;16814;52.118;11.436;2023-11-21T15:26:39;4.30;99.90
29571;DHT22;16814;52.118;11.436;2023-11-21T15:29:06;4.20;99.90
29571;DHT22;16814;52.118;11.436;2023-11-21T15:31:35;4.20;99.90
29571;DHT22;16814;52.118;11.436;2023-11-21T15:34:03;4.30;99.90
29571;DHT22;16814;52.118;11.436;2023-11-21T15:36:35;4.20;99.90
29571;DHT22;16814;52.118;11.436;2023-11-21T15:39:03;4.20;99.90
29571;DHT22;16814;52.118;11.436;2023-11-21T15:41:29;4.20;99.90
29571;DHT22;16814;52.118;11.436;2023-11-21T15:43:56;4.20;99.90
29571;DHT22;16814;52.118;11.436;2023-11-21T15:46:22;4.20;99.90
29571;DHT22;16814;52.118;11.436;2023-11-21T15:48:50;4.20;99.90
29571;DHT22;16814;52.118;11.436;2023-11-21T15:51:22;4.10;99.90